Homestead AFB, FL

7:48 AM EST on December 26, 2014 (GMT -0500)
Miami International | Change Station
CLOSE
Current Station
Airport
Location: Miami,
Elevation: 13 ft
Nearby Weather Stations

Elev 13 ft 25.79 °N, 80.32 °W | Updated 55 minutes ago

Mostly Cloudy
Mostly Cloudy
68 °F
Feels Like 68 °F
N
6
Wind Variable Wind from North

Today
High -- | Low -- °F
--% Chance of Precip.
Yesterday
High -- | Low -- °F
Precip. -- in
7:05 AM 5:38 PM
Waxing Crescent, 25% visible
Pressure 30.15 in
Visibility 10.0 miles
Clouds Scattered Clouds 1500 ft
Mostly Cloudy 2500 ft
Overcast 4200 ft
Dew Point 62 °F
Humidity 81%
Rainfall 0.00 in
Snow Depth Not available.
UV 0 out of 12
Pollen 3.00 out of 12
Air Quality Not available.
Flu Activity Not available.
METAR KMIA 261153Z 36005KT 10SM SCT015 BKN025 OVC042 20/17 A3015 RMK AO2 SLP210 70001 T02000167 10217 20189 53005 VISNO RWY 9L $

More Conditions Fewer Conditions

Pressure 30.15 in
Visibility 10.0 miles
Clouds Scattered Clouds 1500 ft
Mostly Cloudy 2500 ft
Overcast 4200 ft
Dew Point 62 °F
Humidity 81%
Rainfall 0.00 in
Snow Depth Not available.
UV 0 out of 12
Pollen 3.00 out of 12
Air Quality Not available.
Flu Activity Not available.
METAR KMIA 261153Z 36005KT 10SM SCT015 BKN025 OVC042 20/17 A3015 RMK AO2 SLP210 70001 T02000167 10217 20189 53005 VISNO RWY 9L $

More Conditions Fewer Conditions

Nowcast | as of 6:21 am EST on December 26, 2014

Widely scattered showers have developed along the coast, moving west through mostly Miami-Dade and Broward counties this morning. Rainfall amounts will mainly be light.

×

10-Day Weather Forecast

Almanac

Astronomy

Dec. 26, 2014 Rise Set
Actual Time
Civil Twilight
Nautical Twilight
Astronomical Twilight
Moon
Length of Visible Light
Length of Day
Tomorrow will be .
, % of the Moon is Illuminated

Today's Extremes

State Highs State Lows

Community

WunderPhotos

Upload Photos

1,780,588 photos uploaded!

WunderBlogs® & News

Nearby

Air Quality

  Air Quality AQ Index Pollutant
Not available.

Snow Depth

Station Depth Elevation

Earthquake Activity

City Distance Mag. Time & Date
Minimum magnitude displayed is 2.5.

Coastal Water Temperatures

Place Temperature

Nearby Weather Stations